Main page
METAR-TAF:

METAR-TAF

Airports :

Alpine, Texas, United States

Alpine-Casparis Municipal Airport

latitude: 30-23-03N, longitude: 103-41-00W, elevation: 1376 m

Current weather observation

The report was made 14 minutes ago, at 07:55 UTC
Calm wind
Temperature 3°C
Humidity 100%
Pressure 1018 hPa
Visibility: 16.1 km
Overcast at a height of 500 ft

METAR: KE38 040755Z AUTO 00000KT 10SM OVC005 03/03 A3006 RMK AO2 T00310030

Time: 02:09 (08:09 UTC)


TAF: missing

Weather observations and forecasts of more than 4000 airports (METAR and TAF reports).

The available stations are represented by yellow and red dots on the map.

Hover mouse over dot to see the name of the station.

Then click to see weather observations and forecasts.

To change the map : click on the green buttons with a black cross to zoom in, on the green button with a dash to zoom out, or on the green arrows for adjacent maps.


METAR-TAF: